Time,TemperatureF,DewpointF,PressureIn,WindDirection,WindDirectionDegrees,WindSpeedMPH,WindSpeedGustMPH,Humidity,HourlyPrecipIn,Conditions,Clouds,dailyrainin,SoftwareType,DateUTC
2013-02-03 00:04:00,1.5,-2.7,30.06,West,263,0.0,1.0,82,0.00,,,0.00,Wunderground v.1.15,2013-02-03 06:04:00,
2013-02-03 00:09:00,1.7,-2.3,30.06,West,269,1.0,1.0,83,0.00,,,0.00,Wunderground v.1.15,2013-02-03 06:09:00,
2013-02-03 00:15:00,1.9,-2.1,30.06,WSW,249,1.0,1.0,83,0.00,,,0.00,Wunderground v.1.15,2013-02-03 06:15:00,
2013-02-03 00:21:00,1.9,-2.3,30.05,WSW,252,0.0,1.0,82,0.00,,,0.00,Wunderground v.1.15,2013-02-03 06:21:00,
2013-02-03 00:26:00,2.1,-1.9,30.05,West,259,0.0,1.0,83,0.00,,,0.00,Wunderground v.1.15,2013-02-03 06:26:00,
2013-02-03 00:32:00,2.6,-1.4,30.05,WNW,283,1.0,1.0,83,0.00,,,0.00,Wunderground v.1.15,2013-02-03 06:32:00,
2013-02-03 00:38:00,3.2,-1.1,30.05,West,273,1.0,1.0,82,0.00,,,0.00,Wunderground v.1.15,2013-02-03 06:38:00,
2013-02-03 00:43:00,3.4,-1.1,30.05,West,263,2.0,2.0,81,0.00,,,0.00,Wunderground v.1.15,2013-02-03 06:43:00,
2013-02-03 00:49:00,3.5,-1.0,30.04,West,259,1.0,3.0,81,0.00,,,0.00,Wunderground v.1.15,2013-02-03 06:49:00,
2013-02-03 00:54:00,3.6,-1.2,30.04,West,277,1.0,3.0,80,0.00,,,0.00,Wunderground v.1.15,2013-02-03 06:54:00,
2013-02-03 01:00:00,3.6,-1.2,30.04,West,264,1.0,3.0,80,0.00,,,0.00,Wunderground v.1.15,2013-02-03 07:00:00,
2013-02-03 01:06:00,3.7,-0.8,30.04,West,277,1.0,3.0,81,0.00,,,0.00,Wunderground v.1.15,2013-02-03 07:06:00,
2013-02-03 01:12:00,3.9,-0.9,30.04,WNW,297,1.0,1.0,80,0.00,,,0.00,Wunderground v.1.15,2013-02-03 07:12:00,
2013-02-03 01:18:00,3.9,-1.0,30.04,West,277,2.0,3.0,80,0.00,,,0.00,weatherlink.com 1.10,2013-02-03 07:18:00,
2013-02-03 01:24:00,3.7,-1.1,30.04,WNW,283,1.0,2.0,80,0.00,,,0.00,Wunderground v.1.15,2013-02-03 07:24:00,
2013-02-03 01:29:00,3.6,-1.2,30.03,West,278,1.0,1.0,80,0.00,,,0.00,Wunderground v.1.15,2013-02-03 07:29:00,
2013-02-03 01:35:00,3.4,-1.0,30.03,West,269,1.0,2.0,80,0.00,,,0.00,weatherlink.com 1.10,2013-02-03 07:35:00,
2013-02-03 01:41:00,3.0,-1.8,30.03,West,269,1.0,1.0,80,0.00,,,0.00,Wunderground v.1.15,2013-02-03 07:41:00,
2013-02-03 01:46:00,3.2,-1.3,30.03,WNW,297,1.0,2.0,81,0.00,,,0.00,Wunderground v.1.15,2013-02-03 07:46:00,
2013-02-03 01:52:00,3.6,-0.9,30.03,West,271,1.0,2.0,81,0.00,,,0.00,Wunderground v.1.15,2013-02-03 07:52:00,
2013-02-03 01:57:00,3.8,-0.7,30.03,WSW,252,2.0,3.0,81,0.00,,,0.00,Wunderground v.1.15,2013-02-03 07:57:00,
2013-02-03 02:02:00,3.9,-0.6,30.03,West,264,2.0,3.0,81,0.00,,,0.00,Wunderground v.1.15,2013-02-03 08:02:00,
2013-02-03 02:07:00,4.0,-0.5,30.03,West,270,1.0,3.0,81,0.00,,,0.00,Wunderground v.1.15,2013-02-03 08:07:00,
2013-02-03 02:12:00,4.0,-0.5,30.02,West,278,1.0,3.0,81,0.00,,,0.00,Wunderground v.1.15,2013-02-03 08:12:00,
2013-02-03 02:17:00,4.2,-0.3,30.02,West,274,0.0,3.0,81,0.00,,,0.00,Wunderground v.1.15,2013-02-03 08:17:00,
2013-02-03 02:22:00,4.3,-0.5,30.02,WSW,257,2.0,2.0,80,0.00,,,0.00,Wunderground v.1.15,2013-02-03 08:22:00,
2013-02-03 02:27:00,4.4,-0.1,30.02,West,276,2.0,3.0,81,0.00,,,0.00,Wunderground v.1.15,2013-02-03 08:27:00,
2013-02-03 02:32:00,4.5,0.0,30.02,WSW,257,1.0,3.0,81,0.00,,,0.00,Wunderground v.1.15,2013-02-03 08:32:00,
2013-02-03 02:37:00,4.6,0.1,30.02,West,274,2.0,3.0,81,0.00,,,0.00,Wunderground v.1.15,2013-02-03 08:37:00,
2013-02-03 02:42:00,4.7,0.2,30.02,WSW,255,1.0,2.0,81,0.00,,,0.00,Wunderground v.1.15,2013-02-03 08:42:00,
2013-02-03 02:47:00,4.8,0.2,30.01,West,259,1.0,3.0,81,0.00,,,0.00,Wunderground v.1.15,2013-02-03 08:47:00,
2013-02-03 02:52:00,5.0,0.4,30.01,WSW,255,2.0,3.0,81,0.00,,,0.00,Wunderground v.1.15,2013-02-03 08:52:00,
2013-02-03 02:57:00,5.1,0.5,30.01,West,261,2.0,3.0,81,0.00,,,0.00,Wunderground v.1.15,2013-02-03 08:57:00,
2013-02-03 03:02:00,5.4,1.1,30.01,West,259,2.0,3.0,82,0.00,,,0.00,Wunderground v.1.15,2013-02-03 09:02:00,
2013-02-03 03:07:00,5.5,1.2,30.00,West,261,1.0,3.0,82,0.00,,,0.00,Wunderground v.1.15,2013-02-03 09:07:00,
2013-02-03 03:12:00,5.6,1.3,30.00,West,263,2.0,2.0,82,0.00,,,0.00,Wunderground v.1.15,2013-02-03 09:12:00,
2013-02-03 03:17:00,5.7,1.4,30.00,WSW,256,3.0,4.0,82,0.00,,,0.00,Wunderground v.1.15,2013-02-03 09:17:00,
2013-02-03 03:22:00,5.6,1.0,30.00,WSW,257,3.0,3.0,81,0.00,,,0.00,Wunderground v.1.15,2013-02-03 09:22:00,
2013-02-03 03:27:00,5.5,1.2,30.00,West,263,3.0,3.0,82,0.00,,,0.00,Wunderground v.1.15,2013-02-03 09:27:00,
2013-02-03 03:32:00,5.7,1.7,30.00,West,264,3.0,5.0,83,0.00,,,0.00,Wunderground v.1.15,2013-02-03 09:32:00,
2013-02-03 03:37:00,5.8,1.8,30.00,WSW,256,2.0,5.0,83,0.00,,,0.00,Wunderground v.1.15,2013-02-03 09:37:00,
2013-02-03 03:42:00,5.9,1.8,29.99,West,260,3.0,6.0,83,0.00,,,0.00,Wunderground v.1.15,2013-02-03 09:42:00,
2013-02-03 03:47:00,6.1,2.3,29.99,WSW,242,3.0,6.0,84,0.00,,,0.00,Wunderground v.1.15,2013-02-03 09:47:00,
2013-02-03 03:52:00,6.3,2.5,29.99,WSW,246,3.0,5.0,84,0.00,,,0.00,Wunderground v.1.15,2013-02-03 09:52:00,
2013-02-03 03:57:00,6.5,2.7,30.00,West,260,3.0,6.0,84,0.00,,,0.00,Wunderground v.1.15,2013-02-03 09:57:00,
2013-02-03 04:02:00,6.6,2.8,29.99,WSW,255,3.0,4.0,84,0.00,,,0.00,Wunderground v.1.15,2013-02-03 10:02:00,
2013-02-03 04:07:00,6.8,3.0,29.99,WSW,256,4.0,6.0,84,0.00,,,0.00,Wunderground v.1.15,2013-02-03 10:07:00,
2013-02-03 04:12:00,6.8,3.0,29.99,West,273,1.0,4.0,84,0.00,,,0.00,Wunderground v.1.15,2013-02-03 10:12:00,
2013-02-03 04:17:00,6.9,3.3,29.99,WSW,257,5.0,5.0,85,0.00,,,0.00,Wunderground v.1.15,2013-02-03 10:17:00,
2013-02-03 04:22:00,7.1,3.5,29.98,WNW,287,3.0,5.0,85,0.00,,,0.00,Wunderground v.1.15,2013-02-03 10:22:00,
2013-02-03 04:27:00,7.2,3.6,29.98,WSW,238,4.0,6.0,85,0.00,,,0.00,Wunderground v.1.15,2013-02-03 10:27:00,
2013-02-03 04:32:00,7.3,3.7,29.98,WSW,253,4.0,5.0,85,0.00,,,0.00,Wunderground v.1.15,2013-02-03 10:32:00,
2013-02-03 04:37:00,7.4,3.8,29.98,WSW,256,4.0,6.0,85,0.00,,,0.00,Wunderground v.1.15,2013-02-03 10:37:00,
2013-02-03 04:42:00,7.3,3.7,29.98,WSW,252,4.0,6.0,85,0.00,,,0.00,Wunderground v.1.15,2013-02-03 10:42:00,
2013-02-03 04:47:00,7.4,3.8,29.99,West,263,3.0,6.0,85,0.00,,,0.00,Wunderground v.1.15,2013-02-03 10:47:00,
2013-02-03 04:52:00,7.3,3.7,29.99,WSW,257,5.0,7.0,85,0.00,,,0.00,Wunderground v.1.15,2013-02-03 10:52:00,
2013-02-03 04:57:00,7.3,3.7,29.99,West,269,3.0,7.0,85,0.00,,,0.00,Wunderground v.1.15,2013-02-03 10:57:00,
2013-02-03 05:02:00,7.3,3.7,29.99,WSW,257,4.0,8.0,85,0.00,,,0.00,Wunderground v.1.15,2013-02-03 11:02:00,
2013-02-03 05:07:00,7.2,3.6,29.99,WSW,246,4.0,8.0,85,0.00,,,0.00,Wunderground v.1.15,2013-02-03 11:07:00,
2013-02-03 05:12:00,7.3,3.7,30.00,WSW,250,4.0,6.0,85,0.00,,,0.00,Wunderground v.1.15,2013-02-03 11:12:00,
2013-02-03 05:17:00,7.2,3.6,29.99,West,263,5.0,6.0,85,0.00,,,0.00,Wunderground v.1.15,2013-02-03 11:17:00,
2013-02-03 05:22:00,7.2,3.6,29.99,WSW,256,4.0,8.0,85,0.00,,,0.00,Wunderground v.1.15,2013-02-03 11:22:00,
2013-02-03 05:27:00,7.2,3.6,29.99,WSW,246,7.0,8.0,85,0.00,,,0.00,Wunderground v.1.15,2013-02-03 11:27:00,
2013-02-03 05:32:00,7.2,3.6,29.99,West,274,3.0,8.0,85,0.00,,,0.00,Wunderground v.1.15,2013-02-03 11:32:00,
2013-02-03 05:38:00,7.3,4.0,29.99,WSW,240,6.0,8.0,86,0.00,,,0.00,Wunderground v.1.15,2013-02-03 11:38:00,
2013-02-03 05:43:00,7.3,4.0,29.99,WSW,239,6.0,10.0,86,0.00,,,0.00,Wunderground v.1.15,2013-02-03 11:43:00,
2013-02-03 05:48:00,7.4,4.1,29.99,WSW,253,3.0,10.0,86,0.00,,,0.00,Wunderground v.1.15,2013-02-03 11:48:00,
2013-02-03 05:53:00,7.4,4.1,29.99,West,259,4.0,7.0,86,0.00,,,0.00,Wunderground v.1.15,2013-02-03 11:53:00,
2013-02-03 05:58:00,7.4,4.1,29.99,West,269,4.0,8.0,86,0.00,,,0.00,Wunderground v.1.15,2013-02-03 11:58:00,
2013-02-03 06:03:00,7.5,4.2,29.99,WSW,240,6.0,7.0,86,0.00,,,0.00,Wunderground v.1.15,2013-02-03 12:03:00,
2013-02-03 06:08:00,7.6,4.3,29.99,WSW,245,6.0,7.0,86,0.00,,,0.00,Wunderground v.1.15,2013-02-03 12:08:00,
2013-02-03 06:13:00,7.6,4.3,29.99,SW,233,5.0,8.0,86,0.00,,,0.00,Wunderground v.1.15,2013-02-03 12:13:00,
2013-02-03 06:18:00,7.7,4.4,29.99,WSW,256,5.0,8.0,86,0.00,,,0.00,Wunderground v.1.15,2013-02-03 12:18:00,
2013-02-03 06:23:00,7.7,4.4,29.99,WSW,247,7.0,10.0,86,0.00,,,0.00,Wunderground v.1.15,2013-02-03 12:23:00,
2013-02-03 06:28:00,7.8,4.5,29.99,WSW,245,6.0,10.0,86,0.00,,,0.00,Wunderground v.1.15,2013-02-03 12:28:00,
2013-02-03 06:33:00,7.9,4.6,29.99,WSW,240,6.0,9.0,86,0.00,,,0.00,Wunderground v.1.15,2013-02-03 12:33:00,
2013-02-03 06:38:00,8.0,4.7,29.99,WSW,255,6.0,9.0,86,0.00,,,0.00,Wunderground v.1.15,2013-02-03 12:38:00,
2013-02-03 06:43:00,8.0,4.7,29.99,West,267,5.0,7.0,86,0.00,,,0.00,Wunderground v.1.15,2013-02-03 12:43:00,
2013-02-03 06:47:00,8.1,4.8,29.99,SW,233,5.0,8.0,86,0.00,,,0.00,Wunderground v.1.15,2013-02-03 12:47:00,
2013-02-03 06:52:00,8.2,4.9,30.00,WSW,250,7.0,8.0,86,0.00,,,0.00,Wunderground v.1.15,2013-02-03 12:52:00,
2013-02-03 06:58:00,8.2,4.9,30.00,WSW,250,5.0,8.0,86,0.00,,,0.00,Wunderground v.1.15,2013-02-03 12:58:00,
2013-02-03 07:03:00,8.3,5.0,30.00,West,261,8.0,8.0,86,0.00,,,0.00,Wunderground v.1.15,2013-02-03 13:03:00,
2013-02-03 07:08:00,8.3,5.0,30.00,West,269,5.0,10.0,86,0.00,,,0.00,Wunderground v.1.15,2013-02-03 13:08:00,
2013-02-03 07:13:00,8.4,5.1,30.00,WSW,245,6.0,10.0,86,0.00,,,0.00,Wunderground v.1.15,2013-02-03 13:13:00,
2013-02-03 07:18:00,8.5,5.2,30.00,WSW,248,6.0,10.0,86,0.00,,,0.00,Wunderground v.1.15,2013-02-03 13:18:00,
2013-02-03 07:23:00,8.5,5.2,30.00,West,263,5.0,8.0,86,0.00,,,0.00,Wunderground v.1.15,2013-02-03 13:23:00,
2013-02-03 07:28:00,8.6,5.3,30.00,West,264,6.0,6.0,86,0.00,,,0.00,Wunderground v.1.15,2013-02-03 13:28:00,
2013-02-03 07:33:00,8.7,5.4,30.00,West,263,5.0,9.0,86,0.00,,,0.00,Wunderground v.1.15,2013-02-03 13:33:00,
2013-02-03 07:38:00,8.7,5.4,30.00,West,259,10.0,10.0,86,0.00,,,0.00,Wunderground v.1.15,2013-02-03 13:38:00,
2013-02-03 07:43:00,8.9,5.8,30.00,WSW,256,6.0,10.0,87,0.00,,,0.00,Wunderground v.1.15,2013-02-03 13:43:00,
2013-02-03 07:48:00,9.1,5.8,30.01,WSW,246,6.0,6.0,86,0.00,,,0.00,Wunderground v.1.15,2013-02-03 13:48:00,
2013-02-03 07:53:00,9.2,5.9,30.01,WSW,242,9.0,10.0,86,0.00,,,0.00,Wunderground v.1.15,2013-02-03 13:53:00,
2013-02-03 07:58:00,9.4,6.1,30.01,West,276,6.0,7.0,86,0.00,,,0.00,Wunderground v.1.15,2013-02-03 13:58:00,
2013-02-03 08:03:00,9.6,6.3,30.01,West,264,6.0,11.0,86,0.00,,,0.00,Wunderground v.1.15,2013-02-03 14:03:00,
2013-02-03 08:08:00,9.7,6.4,30.01,West,266,7.0,7.0,86,0.00,,,0.00,Wunderground v.1.15,2013-02-03 14:08:00,
2013-02-03 08:13:00,9.8,6.5,30.01,WSW,248,10.0,14.0,86,0.00,,,0.00,Wunderground v.1.15,2013-02-03 14:13:00,
2013-02-03 08:18:00,9.9,6.6,30.01,West,276,5.0,7.0,86,0.00,,,0.00,Wunderground v.1.15,2013-02-03 14:18:00,
2013-02-03 08:23:00,9.9,6.6,30.01,West,267,5.0,12.0,86,0.00,,,0.00,Wunderground v.1.15,2013-02-03 14:23:00,
2013-02-03 08:28:00,10.0,6.6,30.00,West,277,6.0,7.0,86,0.00,,,0.00,Wunderground v.1.15,2013-02-03 14:28:00,
2013-02-03 08:33:00,10.1,6.7,30.00,West,264,8.0,12.0,86,0.00,,,0.00,Wunderground v.1.15,2013-02-03 14:33:00,
2013-02-03 08:38:00,10.2,6.8,30.00,West,262,9.0,9.0,86,0.00,,,0.00,Wunderground v.1.15,2013-02-03 14:38:00,
2013-02-03 08:43:00,10.3,6.9,30.00,West,266,6.0,11.0,86,0.00,,,0.00,Wunderground v.1.15,2013-02-03 14:43:00,
2013-02-03 08:48:00,10.4,7.0,30.00,West,263,8.0,8.0,86,0.00,,,0.00,Wunderground v.1.15,2013-02-03 14:48:00,
2013-02-03 08:53:00,10.5,7.1,30.00,WSW,252,7.0,11.0,86,0.00,,,0.00,Wunderground v.1.15,2013-02-03 14:53:00,
2013-02-03 08:58:00,10.6,7.2,30.00,West,270,7.0,7.0,86,0.00,,,0.00,Wunderground v.1.15,2013-02-03 14:58:00,
2013-02-03 09:03:00,10.7,7.3,30.00,WSW,249,9.0,11.0,86,0.00,,,0.00,Wunderground v.1.15,2013-02-03 15:03:00,
2013-02-03 09:08:00,10.9,7.5,30.00,West,262,7.0,7.0,86,0.00,,,0.00,Wunderground v.1.15,2013-02-03 15:08:00,
2013-02-03 09:13:00,11.1,7.7,30.00,West,273,6.0,9.0,86,0.00,,,0.00,Wunderground v.1.15,2013-02-03 15:13:00,
2013-02-03 09:18:00,11.3,7.7,29.99,West,262,11.0,11.0,85,0.00,,,0.00,Wunderground v.1.15,2013-02-03 15:18:00,
2013-02-03 09:23:00,11.4,7.8,29.99,WSW,243,8.0,13.0,85,0.00,,,0.00,Wunderground v.1.15,2013-02-03 15:23:00,
2013-02-03 09:28:00,11.6,8.0,29.99,WSW,245,8.0,8.0,85,0.00,,,0.00,Wunderground v.1.15,2013-02-03 15:28:00,
2013-02-03 09:33:00,11.8,8.2,30.00,West,278,7.0,16.0,85,0.00,,,0.00,Wunderground v.1.15,2013-02-03 15:33:00,
2013-02-03 09:38:00,12.0,8.1,30.00,SW,236,11.0,13.0,84,0.00,,,0.00,Wunderground v.1.15,2013-02-03 15:38:00,
2013-02-03 09:43:00,12.1,8.2,30.00,West,259,5.0,19.0,84,0.00,,,0.00,Wunderground v.1.15,2013-02-03 15:43:00,
2013-02-03 09:48:00,12.3,8.1,30.00,West,278,9.0,9.0,83,0.00,,,0.00,Wunderground v.1.15,2013-02-03 15:48:00,
2013-02-03 09:53:00,12.4,8.2,30.00,WNW,303,7.0,16.0,83,0.00,,,0.00,Wunderground v.1.15,2013-02-03 15:53:00,
2013-02-03 09:58:00,12.4,8.0,30.00,WSW,252,8.0,8.0,82,0.00,,,0.00,Wunderground v.1.15,2013-02-03 15:58:00,
2013-02-03 10:03:00,12.5,8.0,30.01,North,351,8.0,14.0,82,0.00,,,0.00,Wunderground v.1.15,2013-02-03 16:03:00,
2013-02-03 10:08:00,12.5,7.8,30.01,WNW,287,8.0,8.0,81,0.00,,,0.00,Wunderground v.1.15,2013-02-03 16:08:00,
2013-02-03 10:13:00,12.7,8.0,30.01,West,276,9.0,15.0,81,0.00,,,0.00,Wunderground v.1.15,2013-02-03 16:13:00,
2013-02-03 10:18:00,12.7,7.7,30.01,West,264,12.0,12.0,80,0.00,,,0.00,Wunderground v.1.15,2013-02-03 16:18:00,
2013-02-03 10:23:00,12.8,7.5,30.02,NNW,330,10.0,19.0,79,0.00,,,0.00,Wunderground v.1.15,2013-02-03 16:23:00,
2013-02-03 10:28:00,13.0,7.4,30.01,West,266,7.0,10.0,78,0.00,,,0.00,Wunderground v.1.15,2013-02-03 16:28:00,
2013-02-03 10:33:00,13.2,7.3,30.02,West,280,6.0,16.0,77,0.00,,,0.00,Wunderground v.1.15,2013-02-03 16:33:00,
2013-02-03 10:38:00,13.3,7.4,30.02,NNW,328,8.0,9.0,77,0.00,,,0.00,Wunderground v.1.15,2013-02-03 16:38:00,
2013-02-03 10:43:00,13.4,7.2,30.01,West,271,9.0,15.0,76,0.00,,,0.00,Wunderground v.1.15,2013-02-03 16:43:00,
2013-02-03 10:48:00,13.6,7.4,30.02,WNW,291,12.0,12.0,76,0.00,,,0.00,Wunderground v.1.15,2013-02-03 16:48:00,
2013-02-03 10:53:00,13.7,7.2,30.02,NNE,23,4.0,13.0,75,0.00,,,0.00,Wunderground v.1.15,2013-02-03 16:53:00,
2013-02-03 10:58:00,13.9,7.1,30.02,West,274,12.0,12.0,74,0.00,,,0.00,Wunderground v.1.15,2013-02-03 16:58:00,
2013-02-03 11:03:00,14.1,7.0,30.02,WNW,293,6.0,14.0,73,0.00,,,0.00,Wunderground v.1.15,2013-02-03 17:03:00,
2013-02-03 11:08:00,13.9,6.5,30.03,WNW,288,4.0,8.0,72,0.00,,,0.00,Wunderground v.1.15,2013-02-03 17:08:00,
2013-02-03 11:13:00,14.1,7.0,30.03,WNW,293,4.0,15.0,73,0.00,,,0.00,Wunderground v.1.15,2013-02-03 17:13:00,
2013-02-03 11:18:00,14.2,6.8,30.03,NW,315,10.0,13.0,72,0.00,,,0.00,Wunderground v.1.15,2013-02-03 17:18:00,
2013-02-03 11:23:00,14.5,7.1,30.03,WNW,294,7.0,14.0,72,0.00,,,0.00,Wunderground v.1.15,2013-02-03 17:23:00,
2013-02-03 11:28:00,14.8,7.4,30.03,WNW,284,8.0,11.0,72,0.00,,,0.00,Wunderground v.1.15,2013-02-03 17:28:00,
2013-02-03 11:33:00,14.8,7.1,30.03,WNW,302,3.0,14.0,71,0.00,,,0.00,Wunderground v.1.15,2013-02-03 17:33:00,
2013-02-03 11:38:00,14.9,7.2,30.03,West,278,8.0,10.0,71,0.00,,,0.00,Wunderground v.1.15,2013-02-03 17:38:00,
2013-02-03 11:43:00,14.9,7.2,30.02,WNW,283,8.0,16.0,71,0.00,,,0.00,Wunderground v.1.15,2013-02-03 17:43:00,
2013-02-03 11:48:00,14.8,7.4,30.02,West,276,12.0,12.0,72,0.00,,,0.00,Wunderground v.1.15,2013-02-03 17:48:00,
2013-02-03 11:53:00,14.5,7.1,30.03,West,264,12.0,18.0,72,0.00,,,0.00,Wunderground v.1.15,2013-02-03 17:53:00,
2013-02-03 11:58:00,14.4,7.0,30.03,West,266,10.0,14.0,72,0.00,,,0.00,Wunderground v.1.15,2013-02-03 17:58:00,
2013-02-03 12:03:00,14.1,7.0,30.02,NW,304,13.0,17.0,73,0.00,,,0.00,Wunderground v.1.15,2013-02-03 18:03:00,
2013-02-03 12:08:00,14.4,7.0,30.02,West,266,10.0,10.0,72,0.00,,,0.00,Wunderground v.1.15,2013-02-03 18:08:00,
2013-02-03 12:13:00,14.3,6.9,30.02,WNW,293,9.0,23.0,72,0.00,,,0.00,Wunderground v.1.15,2013-02-03 18:13:00,
2013-02-03 12:18:00,14.2,6.8,30.02,West,274,7.0,9.0,72,0.00,,,0.00,Wunderground v.1.15,2013-02-03 18:18:00,
2013-02-03 12:23:00,14.7,7.3,30.02,WSW,256,12.0,14.0,72,0.00,,,0.00,Wunderground v.1.15,2013-02-03 18:23:00,
2013-02-03 12:28:00,15.4,8.0,30.02,West,259,5.0,8.0,72,0.00,,,0.00,Wunderground v.1.15,2013-02-03 18:28:00,
2013-02-03 12:33:00,15.7,7.6,30.03,WNW,293,6.0,14.0,70,0.00,,,0.00,Wunderground v.1.15,2013-02-03 18:33:00,
2013-02-03 12:38:00,15.6,7.2,30.02,West,266,5.0,14.0,69,0.00,,,0.00,Wunderground v.1.15,2013-02-03 18:38:00,
2013-02-03 12:43:00,15.7,7.6,30.03,West,262,11.0,14.0,70,0.00,,,0.00,Wunderground v.1.15,2013-02-03 18:43:00,
2013-02-03 12:48:00,15.8,7.4,30.03,WSW,256,13.0,13.0,69,0.00,,,0.00,Wunderground v.1.15,2013-02-03 18:48:00,
2013-02-03 12:53:00,15.9,7.5,30.03,WNW,285,6.0,15.0,69,0.00,,,0.00,Wunderground v.1.15,2013-02-03 18:53:00,
2013-02-03 12:58:00,15.8,7.4,30.03,NW,315,8.0,10.0,69,0.00,,,0.00,Wunderground v.1.15,2013-02-03 18:58:00,
2013-02-03 13:03:00,15.8,7.1,30.03,WSW,250,8.0,16.0,68,0.00,,,0.00,Wunderground v.1.15,2013-02-03 19:03:00,
2013-02-03 13:08:00,16.0,7.0,30.03,West,276,7.0,8.0,67,0.00,,,0.00,Wunderground v.1.15,2013-02-03 19:08:00,
2013-02-03 13:13:00,16.1,7.1,30.03,West,259,10.0,15.0,67,0.00,,,0.00,Wunderground v.1.15,2013-02-03 19:13:00,
2013-02-03 13:18:00,15.9,7.2,30.02,WSW,255,13.0,16.0,68,0.00,,,0.00,Wunderground v.1.15,2013-02-03 19:18:00,
2013-02-03 13:23:00,15.8,7.1,30.02,WNW,295,7.0,16.0,68,0.00,,,0.00,Wunderground v.1.15,2013-02-03 19:23:00,
2013-02-03 13:28:00,16.1,7.4,30.03,West,277,9.0,10.0,68,0.00,,,0.00,Wunderground v.1.15,2013-02-03 19:28:00,
2013-02-03 13:33:00,16.1,7.4,30.03,WSW,253,12.0,17.0,68,0.00,,,0.00,Wunderground v.1.15,2013-02-03 19:33:00,
2013-02-03 13:38:00,16.2,7.5,30.02,WSW,253,12.0,12.0,68,0.00,,,0.00,Wunderground v.1.15,2013-02-03 19:38:00,
2013-02-03 13:43:00,16.4,7.7,30.02,WSW,242,14.0,16.0,68,0.00,,,0.00,Wunderground v.1.15,2013-02-03 19:43:00,
2013-02-03 13:48:00,16.4,7.7,30.02,WSW,257,10.0,11.0,68,0.00,,,0.00,Wunderground v.1.15,2013-02-03 19:48:00,
2013-02-03 13:53:00,16.6,7.9,30.02,West,269,8.0,13.0,68,0.00,,,0.00,Wunderground v.1.15,2013-02-03 19:53:00,
2013-02-03 13:58:00,16.8,8.1,30.02,WSW,243,8.0,8.0,68,0.00,,,0.00,Wunderground v.1.15,2013-02-03 19:58:00,
2013-02-03 14:03:00,16.6,7.5,30.02,West,259,9.0,16.0,67,0.00,,,0.00,Wunderground v.1.15,2013-02-03 20:03:00,
2013-02-03 14:08:00,16.5,7.4,30.02,West,266,11.0,13.0,67,0.00,,,0.00,Wunderground v.1.15,2013-02-03 20:08:00,
2013-02-03 14:13:00,16.7,7.0,30.02,WSW,257,11.0,15.0,65,0.00,,,0.00,Wunderground v.1.15,2013-02-03 20:13:00,
2013-02-03 14:18:00,16.7,7.3,30.03,WSW,257,10.0,10.0,66,0.00,,,0.00,Wunderground v.1.15,2013-02-03 20:18:00,
2013-02-03 14:23:00,16.8,7.4,30.03,West,276,10.0,15.0,66,0.00,,,0.00,Wunderground v.1.15,2013-02-03 20:23:00,
2013-02-03 14:28:00,17.1,7.3,30.03,WNW,283,6.0,9.0,65,0.00,,,0.00,Wunderground v.1.15,2013-02-03 20:28:00,
2013-02-03 14:33:00,17.2,7.8,30.03,SW,233,12.0,14.0,66,0.00,,,0.00,Wunderground v.1.15,2013-02-03 20:33:00,
2013-02-03 14:38:00,17.0,7.6,30.03,West,269,13.0,14.0,66,0.00,,,0.00,Wunderground v.1.15,2013-02-03 20:38:00,
2013-02-03 14:43:00,16.7,7.6,30.04,WSW,255,15.0,18.0,67,0.00,,,0.00,Wunderground v.1.15,2013-02-03 20:43:00,
2013-02-03 14:48:00,16.7,7.6,30.04,West,266,9.0,15.0,67,0.00,,,0.00,Wunderground v.1.15,2013-02-03 20:48:00,
2013-02-03 14:53:00,16.7,7.6,30.04,WSW,253,11.0,17.0,67,0.00,,,0.00,Wunderground v.1.15,2013-02-03 20:53:00,
2013-02-03 14:58:00,16.7,7.6,30.04,WNW,282,8.0,13.0,67,0.00,,,0.00,Wunderground v.1.15,2013-02-03 20:58:00,
2013-02-03 15:03:00,17.1,8.0,30.04,West,262,10.0,14.0,67,0.00,,,0.00,Wunderground v.1.15,2013-02-03 21:03:00,
2013-02-03 15:08:00,16.9,7.8,30.04,West,260,13.0,15.0,67,0.00,,,0.00,Wunderground v.1.15,2013-02-03 21:08:00,
2013-02-03 15:13:00,16.9,7.8,30.03,West,260,10.0,17.0,67,0.00,,,0.00,Wunderground v.1.15,2013-02-03 21:13:00,
2013-02-03 15:18:00,17.0,8.3,30.03,West,266,7.0,11.0,68,0.00,,,0.00,Wunderground v.1.15,2013-02-03 21:18:00,
2013-02-03 15:23:00,17.2,8.1,30.03,West,269,10.0,15.0,67,0.00,,,0.00,Wunderground v.1.15,2013-02-03 21:23:00,
2013-02-03 15:28:00,17.3,8.2,30.04,WNW,290,6.0,9.0,67,0.00,,,0.00,Wunderground v.1.15,2013-02-03 21:28:00,
2013-02-03 15:34:00,17.5,8.1,30.04,West,271,8.0,12.0,66,0.00,,,0.00,Wunderground v.1.15,2013-02-03 21:34:00,
2013-02-03 15:39:00,17.6,8.5,30.03,West,262,5.0,8.0,67,0.00,,,0.00,Wunderground v.1.15,2013-02-03 21:39:00,
2013-02-03 15:44:00,17.6,8.5,30.04,WSW,252,8.0,13.0,67,0.00,,,0.00,Wunderground v.1.15,2013-02-03 21:44:00,
2013-02-03 15:49:00,17.6,8.5,30.03,West,259,9.0,9.0,67,0.00,,,0.00,Wunderground v.1.15,2013-02-03 21:49:00,
2013-02-03 15:54:00,17.6,8.5,30.03,West,263,6.0,13.0,67,0.00,,,0.00,Wunderground v.1.15,2013-02-03 21:54:00,
2013-02-03 15:59:00,17.5,8.1,30.04,West,264,9.0,11.0,66,0.00,,,0.00,Wunderground v.1.15,2013-02-03 21:59:00,
2013-02-03 16:04:00,17.3,8.2,30.03,WNW,284,5.0,14.0,67,0.00,,,0.00,Wunderground v.1.15,2013-02-03 22:04:00,
2013-02-03 16:09:00,17.3,8.2,30.04,West,264,7.0,10.0,67,0.00,,,0.00,Wunderground v.1.15,2013-02-03 22:09:00,
2013-02-03 16:14:00,17.2,8.1,30.04,WSW,255,9.0,16.0,67,0.00,,,0.00,Wunderground v.1.15,2013-02-03 22:14:00,
2013-02-03 16:19:00,17.0,8.3,30.04,West,262,10.0,12.0,68,0.00,,,0.00,Wunderground v.1.15,2013-02-03 22:19:00,
2013-02-03 16:24:00,16.8,7.7,30.04,West,259,6.0,15.0,67,0.00,,,0.00,Wunderground v.1.15,2013-02-03 22:24:00,
2013-02-03 16:29:00,16.7,8.0,30.03,WSW,253,6.0,10.0,68,0.00,,,0.00,Wunderground v.1.15,2013-02-03 22:29:00,
2013-02-03 16:34:00,16.6,7.9,30.03,WSW,246,8.0,12.0,68,0.00,,,0.00,Wunderground v.1.15,2013-02-03 22:34:00,
2013-02-03 16:39:00,16.6,7.9,30.03,West,259,4.0,8.0,68,0.00,,,0.00,Wunderground v.1.15,2013-02-03 22:39:00,
2013-02-03 16:44:00,16.3,7.6,30.03,West,281,3.0,12.0,68,0.00,,,0.00,Wunderground v.1.15,2013-02-03 22:44:00,
2013-02-03 16:49:00,16.2,7.5,30.04,West,264,5.0,10.0,68,0.00,,,0.00,Wunderground v.1.15,2013-02-03 22:49:00,
2013-02-03 16:54:00,16.0,7.6,30.04,West,264,5.0,12.0,69,0.00,,,0.00,Wunderground v.1.15,2013-02-03 22:54:00,
2013-02-03 16:59:00,15.6,7.2,30.04,West,262,4.0,7.0,69,0.00,,,0.00,Wunderground v.1.15,2013-02-03 22:59:00,
2013-02-03 17:04:00,15.1,7.1,30.04,West,259,3.0,7.0,70,0.00,,,0.00,Wunderground v.1.15,2013-02-03 23:04:00,
2013-02-03 17:09:00,14.8,6.8,30.04,WSW,249,3.0,4.0,70,0.00,,,0.00,Wunderground v.1.15,2013-02-03 23:09:00,
2013-02-03 17:14:00,14.7,7.0,30.04,West,259,4.0,6.0,71,0.00,,,0.00,Wunderground v.1.15,2013-02-03 23:14:00,
2013-02-03 17:19:00,14.4,6.7,30.04,West,266,3.0,4.0,71,0.00,,,0.00,Wunderground v.1.15,2013-02-03 23:19:00,
2013-02-03 17:24:00,13.9,6.2,30.04,West,260,2.0,4.0,71,0.00,,,0.00,Wunderground v.1.15,2013-02-03 23:24:00,
2013-02-03 17:29:00,13.6,6.2,30.04,WSW,250,4.0,4.0,72,0.00,,,0.00,Wunderground v.1.15,2013-02-03 23:29:00,
2013-02-03 17:34:00,13.4,6.1,30.05,West,262,3.0,5.0,72,0.00,,,0.00,Wunderground v.1.15,2013-02-03 23:34:00,
2013-02-03 17:39:00,13.1,6.1,30.05,West,264,3.0,4.0,73,0.00,,,0.00,Wunderground v.1.15,2013-02-03 23:39:00,
2013-02-03 17:44:00,13.2,6.5,30.05,WSW,257,3.0,4.0,74,0.00,,,0.00,Wunderground v.1.15,2013-02-03 23:44:00,
2013-02-03 17:49:00,13.0,6.3,30.05,WSW,256,3.0,3.0,74,0.00,,,0.00,Wunderground v.1.15,2013-02-03 23:49:00,
2013-02-03 17:54:00,12.7,6.0,30.05,WSW,253,2.0,3.0,74,0.00,,,0.00,Wunderground v.1.15,2013-02-03 23:54:00,
2013-02-03 17:59:00,12.6,5.9,30.05,West,262,2.0,2.0,74,0.00,,,0.00,Wunderground v.1.15,2013-02-03 23:59:00,
2013-02-03 18:04:00,12.6,6.2,30.05,West,264,0.0,2.0,75,0.00,,,0.00,Wunderground v.1.15,2013-02-04 00:04:00,
2013-02-03 18:09:00,12.5,6.1,30.06,West,263,0.0,1.0,75,0.00,,,0.00,Wunderground v.1.15,2013-02-04 00:09:00,
2013-02-03 18:14:00,12.2,5.8,30.06,West,262,0.0,1.0,75,0.00,,,0.00,Wunderground v.1.15,2013-02-04 00:14:00,
2013-02-03 18:19:00,11.7,5.3,30.06,West,263,0.0,0.0,75,0.00,,,0.00,Wunderground v.1.15,2013-02-04 00:19:00,
2013-02-03 18:24:00,11.2,4.8,30.06,West,262,0.0,0.0,75,0.00,,,0.00,Wunderground v.1.15,2013-02-04 00:24:00,
2013-02-03 18:29:00,10.8,4.7,30.06,West,262,0.0,0.0,76,0.00,,,0.00,Wunderground v.1.15,2013-02-04 00:29:00,
2013-02-03 18:34:00,10.6,4.8,30.06,West,262,0.0,0.0,77,0.00,,,0.00,Wunderground v.1.15,2013-02-04 00:34:00,
2013-02-03 18:39:00,10.2,4.7,30.06,West,263,0.0,0.0,78,0.00,,,0.00,Wunderground v.1.15,2013-02-04 00:39:00,
2013-02-03 18:44:00,10.0,4.8,30.06,West,262,0.0,0.0,79,0.00,,,0.00,Wunderground v.1.15,2013-02-04 00:44:00,
2013-02-03 18:49:00,10.0,4.8,30.06,West,262,0.0,0.0,79,0.00,,,0.00,Wunderground v.1.15,2013-02-04 00:49:00,
2013-02-03 18:54:00,9.9,4.7,30.06,West,262,0.0,0.0,79,0.00,,,0.00,Wunderground v.1.15,2013-02-04 00:54:00,
2013-02-03 18:59:00,10.0,5.1,30.06,West,263,0.0,0.0,80,0.00,,,0.00,Wunderground v.1.15,2013-02-04 00:59:00,
2013-02-03 19:04:00,10.4,5.5,30.06,West,262,0.0,0.0,80,0.00,,,0.00,Wunderground v.1.15,2013-02-04 01:04:00,
2013-02-03 19:09:00,10.8,5.8,30.06,West,263,0.0,0.0,80,0.00,,,0.00,Wunderground v.1.15,2013-02-04 01:09:00,
2013-02-03 19:14:00,11.0,6.0,30.06,West,262,0.0,0.0,80,0.00,,,0.00,Wunderground v.1.15,2013-02-04 01:14:00,
2013-02-03 19:19:00,11.2,6.5,30.06,West,263,0.0,0.0,81,0.00,,,0.00,Wunderground v.1.15,2013-02-04 01:19:00,
2013-02-03 19:24:00,11.7,7.0,30.06,West,263,0.0,0.0,81,0.00,,,0.00,Wunderground v.1.15,2013-02-04 01:24:00,
2013-02-03 19:29:00,12.4,7.4,30.06,West,261,1.0,2.0,80,0.00,,,0.00,Wunderground v.1.15,2013-02-04 01:29:00,
2013-02-03 19:34:00,12.6,7.3,30.07,WSW,257,1.0,2.0,79,0.00,,,0.00,Wunderground v.1.15,2013-02-04 01:34:00,
2013-02-03 19:39:00,12.8,7.8,30.07,WSW,258,3.0,4.0,80,0.00,,,0.00,Wunderground v.1.15,2013-02-04 01:39:00,
2013-02-03 19:44:00,13.3,8.0,30.07,WSW,256,3.0,6.0,79,0.00,,,0.00,Wunderground v.1.15,2013-02-04 01:44:00,
2013-02-03 19:49:00,13.7,8.4,30.07,West,270,3.0,3.0,79,0.00,,,0.00,Wunderground v.1.15,2013-02-04 01:49:00,
2013-02-03 19:54:00,13.9,8.6,30.07,WSW,245,4.0,5.0,79,0.00,,,0.00,Wunderground v.1.15,2013-02-04 01:54:00,
2013-02-03 19:59:00,14.1,8.5,30.07,WSW,255,2.0,3.0,78,0.00,,,0.00,Wunderground v.1.15,2013-02-04 01:59:00,
2013-02-03 20:04:00,14.3,8.7,30.06,WSW,250,2.0,5.0,78,0.00,,,0.00,Wunderground v.1.15,2013-02-04 02:04:00,
2013-02-03 20:09:00,14.3,8.7,30.06,SW,233,2.0,5.0,78,0.00,,,0.00,Wunderground v.1.15,2013-02-04 02:09:00,
2013-02-03 20:14:00,14.4,8.8,30.06,West,260,4.0,5.0,78,0.00,,,0.00,Wunderground v.1.15,2013-02-04 02:14:00,
2013-02-03 20:19:00,14.5,8.9,30.06,West,266,4.0,5.0,78,0.00,,,0.00,Wunderground v.1.15,2013-02-04 02:19:00,
2013-02-03 20:24:00,14.5,8.9,30.06,WSW,240,3.0,6.0,78,0.00,,,0.00,Wunderground v.1.15,2013-02-04 02:24:00,
2013-02-03 20:29:00,14.5,8.9,30.06,WSW,257,4.0,5.0,78,0.00,,,0.00,Wunderground v.1.15,2013-02-04 02:29:00,
2013-02-03 20:34:00,14.5,8.9,30.07,WSW,248,5.0,7.0,78,0.00,,,0.00,Wunderground v.1.15,2013-02-04 02:34:00,
2013-02-03 20:39:00,14.6,9.0,30.07,WSW,256,3.0,4.0,78,0.00,,,0.00,Wunderground v.1.15,2013-02-04 02:39:00,
2013-02-03 20:44:00,14.5,8.9,30.07,West,264,4.0,6.0,78,0.00,,,0.00,Wunderground v.1.15,2013-02-04 02:44:00,
2013-02-03 20:49:00,14.6,9.0,30.07,West,281,3.0,4.0,78,0.00,,,0.00,Wunderground v.1.15,2013-02-04 02:49:00,
2013-02-03 20:54:00,14.6,9.0,30.07,WSW,242,2.0,5.0,78,0.00,,,0.00,Wunderground v.1.15,2013-02-04 02:54:00,
2013-02-03 20:59:00,14.6,9.3,30.07,SW,236,2.0,3.0,79,0.00,,,0.00,Wunderground v.1.15,2013-02-04 02:59:00,
2013-02-03 21:04:00,14.5,9.2,30.07,West,260,3.0,4.0,79,0.00,,,0.00,Wunderground v.1.15,2013-02-04 03:04:00,
2013-02-03 21:09:00,14.5,9.2,30.07,WSW,247,3.0,3.0,79,0.00,,,0.00,Wunderground v.1.15,2013-02-04 03:09:00,
2013-02-03 21:14:00,14.5,9.2,30.07,WSW,255,3.0,5.0,79,0.00,,,0.00,Wunderground v.1.15,2013-02-04 03:14:00,
2013-02-03 21:19:00,14.4,9.1,30.08,WSW,255,2.0,4.0,79,0.00,,,0.00,Wunderground v.1.15,2013-02-04 03:19:00,
2013-02-03 21:24:00,14.4,9.4,30.08,WSW,255,2.0,4.0,80,0.00,,,0.00,Wunderground v.1.15,2013-02-04 03:24:00,
2013-02-03 21:29:00,14.4,9.4,30.07,West,259,3.0,3.0,80,0.00,,,0.00,Wunderground v.1.15,2013-02-04 03:29:00,
2013-02-03 21:34:00,14.4,9.4,30.08,West,264,3.0,4.0,80,0.00,,,0.00,Wunderground v.1.15,2013-02-04 03:34:00,
2013-02-03 21:39:00,14.4,9.4,30.07,WSW,248,4.0,6.0,80,0.00,,,0.00,Wunderground v.1.15,2013-02-04 03:39:00,
2013-02-03 21:44:00,14.5,9.5,30.07,West,259,4.0,6.0,80,0.00,,,0.00,Wunderground v.1.15,2013-02-04 03:44:00,
2013-02-03 21:49:00,14.5,9.5,30.07,WSW,253,3.0,3.0,80,0.00,,,0.00,Wunderground v.1.15,2013-02-04 03:49:00,
2013-02-03 21:54:00,14.6,9.6,30.07,WSW,255,3.0,5.0,80,0.00,,,0.00,Wunderground v.1.15,2013-02-04 03:54:00,
2013-02-03 21:59:00,14.7,9.4,30.07,WSW,240,2.0,4.0,79,0.00,,,0.00,Wunderground v.1.15,2013-02-04 03:59:00,
2013-02-03 22:04:00,14.7,9.4,30.07,West,270,3.0,5.0,79,0.00,,,0.00,Wunderground v.1.15,2013-02-04 04:04:00,
2013-02-03 22:09:00,14.8,9.5,30.08,West,269,6.0,6.0,79,0.00,,,0.00,Wunderground v.1.15,2013-02-04 04:09:00,
2013-02-03 22:14:00,14.8,9.5,30.08,WSW,238,4.0,6.0,79,0.00,,,0.00,Wunderground v.1.15,2013-02-04 04:14:00,
2013-02-03 22:19:00,14.8,9.5,30.08,West,265,4.0,7.0,79,0.00,,,0.00,Wunderground v.1.15,2013-02-04 04:19:00,
2013-02-03 22:24:00,14.8,9.5,30.08,WSW,243,5.0,7.0,79,0.00,,,0.00,Wunderground v.1.15,2013-02-04 04:24:00,
2013-02-03 22:29:00,14.8,9.5,30.08,West,262,4.0,6.0,79,0.00,,,0.00,Wunderground v.1.15,2013-02-04 04:29:00,
2013-02-03 22:34:00,14.8,9.5,30.08,West,267,3.0,6.0,79,0.00,,,0.00,Wunderground v.1.15,2013-02-04 04:34:00,
2013-02-03 22:39:00,14.7,9.6,30.08,WSW,247,5.0,6.0,80,0.00,,,0.00,Wunderground v.1.15,2013-02-04 04:39:00,
2013-02-03 22:44:00,14.7,9.6,30.08,West,264,3.0,6.0,80,0.00,,,0.00,Wunderground v.1.15,2013-02-04 04:44:00,
2013-02-03 22:49:00,14.6,9.8,30.08,WSW,253,4.0,5.0,81,0.00,,,0.00,Wunderground v.1.15,2013-02-04 04:49:00,
2013-02-03 22:54:00,14.5,10.0,30.08,SW,236,5.0,6.0,82,0.00,,,0.00,Wunderground v.1.15,2013-02-04 04:54:00,
2013-02-03 22:59:00,14.5,10.0,30.08,WSW,253,4.0,5.0,82,0.00,,,0.00,Wunderground v.1.15,2013-02-04 04:59:00,
2013-02-03 23:00:00,14.5,10.0,30.08,WSW,243,5.0,5.0,82,0.00,,,0.00,Wunderground v.1.15,2013-02-04 05:00:00,
2013-02-03 23:03:00,14.5,10.0,30.08,WSW,252,5.0,8.0,82,0.00,,,0.00,Wunderground v.1.15,2013-02-04 05:03:00,
2013-02-03 23:08:00,14.5,10.3,30.08,WSW,239,4.0,5.0,83,0.00,,,0.00,Wunderground v.1.15,2013-02-04 05:08:00,
2013-02-03 23:13:00,14.4,10.2,30.08,West,267,3.0,6.0,83,0.00,,,0.00,Wunderground v.1.15,2013-02-04 05:13:00,
2013-02-03 23:18:00,14.4,10.4,30.07,WSW,245,4.0,4.0,84,0.00,,,0.00,Wunderground v.1.15,2013-02-04 05:18:00,
2013-02-03 23:23:00,14.4,10.4,30.07,WSW,250,4.0,6.0,84,0.00,,,0.00,Wunderground v.1.15,2013-02-04 05:23:00,
2013-02-03 23:28:00,14.4,10.4,30.07,WSW,256,4.0,4.0,84,0.00,,,0.00,Wunderground v.1.15,2013-02-04 05:28:00,
2013-02-03 23:33:00,14.4,10.4,30.07,SW,231,2.0,6.0,84,0.00,,,0.00,Wunderground v.1.15,2013-02-04 05:33:00,
2013-02-03 23:38:00,14.4,10.4,30.07,WSW,253,3.0,3.0,84,0.00,,,0.00,Wunderground v.1.15,2013-02-04 05:38:00,
2013-02-03 23:43:00,14.4,10.4,30.07,West,277,3.0,6.0,84,0.00,,,0.00,Wunderground v.1.15,2013-02-04 05:43:00,
2013-02-03 23:48:00,14.4,10.4,30.07,West,264,2.0,4.0,84,0.00,,,0.00,Wunderground v.1.15,2013-02-04 05:48:00,
2013-02-03 23:53:00,14.4,10.7,30.07,West,262,2.0,5.0,85,0.00,,,0.00,Wunderground v.1.15,2013-02-04 05:53:00,
2013-02-03 23:58:00,14.5,10.8,30.06,WSW,250,1.0,3.0,85,0.00,,,0.00,Wunderground v.1.15,2013-02-04 05:58:00,